sensor_id;sensor_type;location;lat;lon;timestamp;P1;durP1;ratioP1;P2;durP2;ratioP2
1358;SDS011;673;48.098;14.422;2024-03-23T00:56:21;1999.90;;;999.90;;
1358;SDS011;673;48.098;14.422;2024-03-23T00:58:47;1999.90;;;999.90;;
1358;SDS011;673;48.098;14.422;2024-03-23T01:01:15;1999.90;;;999.90;;
1358;SDS011;673;48.098;14.422;2024-03-23T01:03:41;1999.90;;;999.90;;
1358;SDS011;673;48.098;14.422;2024-03-23T01:06:08;1999.90;;;999.90;;
1358;SDS011;673;48.098;14.422;2024-03-23T01:08:34;1999.90;;;999.90;;
1358;SDS011;673;48.098;14.422;2024-03-23T01:11:02;1999.90;;;999.90;;
1358;SDS011;673;48.098;14.422;2024-03-23T01:13:29;1999.90;;;999.90;;
1358;SDS011;673;48.098;14.422;2024-03-23T01:15:56;1999.90;;;999.90;;
1358;SDS011;673;48.098;14.422;2024-03-23T01:18:23;1999.90;;;999.90;;
1358;SDS011;673;48.098;14.422;2024-03-23T01:20:51;1999.90;;;999.90;;
1358;SDS011;673;48.098;14.422;2024-03-23T01:23:17;1999.90;;;999.90;;
1358;SDS011;673;48.098;14.422;2024-03-23T01:25:44;1999.90;;;999.90;;
1358;SDS011;673;48.098;14.422;2024-03-23T01:28:18;1999.90;;;999.90;;
1358;SDS011;673;48.098;14.422;2024-03-23T01:30:45;1999.90;;;999.90;;
1358;SDS011;673;48.098;14.422;2024-03-23T01:33:11;1999.90;;;999.90;;
1358;SDS011;673;48.098;14.422;2024-03-23T01:35:38;1999.90;;;999.90;;
1358;SDS011;673;48.098;14.422;2024-03-23T01:38:04;1999.90;;;999.90;;
1358;SDS011;673;48.098;14.422;2024-03-23T01:40:31;1999.90;;;999.90;;
1358;SDS011;673;48.098;14.422;2024-03-23T01:42:57;1999.90;;;999.90;;
1358;SDS011;673;48.098;14.422;2024-03-23T01:45:30;1999.90;;;999.90;;
1358;SDS011;673;48.098;14.422;2024-03-23T01:47:56;1999.90;;;999.90;;
1358;SDS011;673;48.098;14.422;2024-03-23T01:50:23;1999.90;;;999.90;;
1358;SDS011;673;48.098;14.422;2024-03-23T01:52:49;1999.90;;;999.90;;
1358;SDS011;673;48.098;14.422;2024-03-23T01:55:17;1999.90;;;999.90;;
1358;SDS011;673;48.098;14.422;2024-03-23T01:57:43;1999.90;;;999.90;;
1358;SDS011;673;48.098;14.422;2024-03-23T02:00:10;1999.90;;;999.90;;
1358;SDS011;673;48.098;14.422;2024-03-23T02:02:41;1999.90;;;999.90;;
1358;SDS011;673;48.098;14.422;2024-03-23T02:05:10;1999.90;;;999.90;;
1358;SDS011;673;48.098;14.422;2024-03-23T02:07:36;1999.90;;;999.90;;
1358;SDS011;673;48.098;14.422;2024-03-23T02:10:05;1999.90;;;999.90;;
1358;SDS011;673;48.098;14.422;2024-03-23T02:12:32;1999.90;;;999.90;;
1358;SDS011;673;48.098;14.422;2024-03-23T02:14:58;1999.90;;;999.90;;
1358;SDS011;673;48.098;14.422;2024-03-23T02:17:24;1999.90;;;999.90;;
1358;SDS011;673;48.098;14.422;2024-03-23T02:19:53;1999.90;;;999.90;;
1358;SDS011;673;48.098;14.422;2024-03-23T02:22:19;1999.90;;;999.90;;
1358;SDS011;673;48.098;14.422;2024-03-23T02:24:47;1999.90;;;999.90;;
1358;SDS011;673;48.098;14.422;2024-03-23T02:27:13;1999.90;;;999.90;;
1358;SDS011;673;48.098;14.422;2024-03-23T02:29:40;1999.90;;;999.90;;
1358;SDS011;673;48.098;14.422;2024-03-23T02:32:06;1999.90;;;999.90;;
1358;SDS011;673;48.098;14.422;2024-03-23T02:34:34;1999.90;;;999.90;;
1358;SDS011;673;48.098;14.422;2024-03-23T02:37:00;1999.90;;;999.90;;
1358;SDS011;673;48.098;14.422;2024-03-23T02:39:27;1999.90;;;999.90;;
1358;SDS011;673;48.098;14.422;2024-03-23T02:41:54;1999.90;;;999.90;;
1358;SDS011;673;48.098;14.422;2024-03-23T02:44:21;1999.90;;;999.90;;
1358;SDS011;673;48.098;14.422;2024-03-23T02:46:47;1999.90;;;999.90;;
1358;SDS011;673;48.098;14.422;2024-03-23T02:49:14;1999.90;;;999.90;;
1358;SDS011;673;48.098;14.422;2024-03-23T02:51:40;1999.90;;;999.90;;
1358;SDS011;673;48.098;14.422;2024-03-23T02:54:07;1999.90;;;999.90;;
1358;SDS011;673;48.098;14.422;2024-03-23T02:56:33;1999.90;;;999.90;;
1358;SDS011;673;48.098;14.422;2024-03-23T02:59:01;1999.90;;;999.90;;
1358;SDS011;673;48.098;14.422;2024-03-23T03:01:27;1999.90;;;999.90;;
1358;SDS011;673;48.098;14.422;2024-03-23T03:03:54;1999.90;;;999.90;;
1358;SDS011;673;48.098;14.422;2024-03-23T03:06:23;1999.90;;;999.90;;
1358;SDS011;673;48.098;14.422;2024-03-23T03:08:50;1999.90;;;999.90;;
1358;SDS011;673;48.098;14.422;2024-03-23T03:11:16;1999.90;;;999.90;;
1358;SDS011;673;48.098;14.422;2024-03-23T03:13:43;1999.90;;;999.90;;
1358;SDS011;673;48.098;14.422;2024-03-23T03:16:10;1999.90;;;999.90;;
1358;SDS011;673;48.098;14.422;2024-03-23T03:18:38;1999.90;;;999.90;;
1358;SDS011;673;48.098;14.422;2024-03-23T03:21:05;1999.90;;;999.90;;
1358;SDS011;673;48.098;14.422;2024-03-23T03:23:35;1999.90;;;999.90;;
1358;SDS011;673;48.098;14.422;2024-03-23T03:26:02;1999.90;;;999.90;;
1358;SDS011;673;48.098;14.422;2024-03-23T03:28:29;1999.90;;;999.90;;
1358;SDS011;673;48.098;14.422;2024-03-23T03:30:56;1999.90;;;999.90;;
1358;SDS011;673;48.098;14.422;2024-03-23T03:33:24;1999.90;;;999.90;;
1358;SDS011;673;48.098;14.422;2024-03-23T03:35:51;1999.90;;;999.90;;
1358;SDS011;673;48.098;14.422;2024-03-23T03:38:18;1999.90;;;999.90;;
1358;SDS011;673;48.098;14.422;2024-03-23T03:40:44;1999.90;;;999.90;;
1358;SDS011;673;48.098;14.422;2024-03-23T03:43:11;1999.90;;;999.90;;
1358;SDS011;673;48.098;14.422;2024-03-23T03:45:37;1999.90;;;999.90;;
1358;SDS011;673;48.098;14.422;2024-03-23T03:48:04;1999.90;;;999.90;;
1358;SDS011;673;48.098;14.422;2024-03-23T03:50:32;1999.90;;;999.90;;
1358;SDS011;673;48.098;14.422;2024-03-23T03:52:59;1999.90;;;999.90;;
1358;SDS011;673;48.098;14.422;2024-03-23T03:55:25;1999.90;;;999.90;;
1358;SDS011;673;48.098;14.422;2024-03-23T03:57:52;1999.90;;;999.90;;
1358;SDS011;673;48.098;14.422;2024-03-23T04:00:18;1999.90;;;999.90;;
1358;SDS011;673;48.098;14.422;2024-03-23T04:02:45;1999.90;;;999.90;;
1358;SDS011;673;48.098;14.422;2024-03-23T04:05:12;1999.90;;;999.90;;
1358;SDS011;673;48.098;14.422;2024-03-23T04:07:40;1999.90;;;999.90;;
1358;SDS011;673;48.098;14.422;2024-03-23T04:10:07;1999.90;;;999.90;;
1358;SDS011;673;48.098;14.422;2024-03-23T04:12:34;1999.90;;;999.90;;
1358;SDS011;673;48.098;14.422;2024-03-23T04:15:00;1999.90;;;999.90;;
1358;SDS011;673;48.098;14.422;2024-03-23T04:17:28;1999.90;;;999.90;;
1358;SDS011;673;48.098;14.422;2024-03-23T04:19:57;1999.90;;;999.90;;
1358;SDS011;673;48.098;14.422;2024-03-23T04:22:24;1999.90;;;999.90;;
1358;SDS011;673;48.098;14.422;2024-03-23T04:24:53;1999.90;;;999.90;;
1358;SDS011;673;48.098;14.422;2024-03-23T04:27:20;1999.90;;;999.90;;
1358;SDS011;673;48.098;14.422;2024-03-23T04:29:47;1999.90;;;999.90;;
1358;SDS011;673;48.098;14.422;2024-03-23T04:32:15;1999.90;;;999.90;;
1358;SDS011;673;48.098;14.422;2024-03-23T04:34:41;1999.90;;;999.90;;
1358;SDS011;673;48.098;14.422;2024-03-23T04:37:09;1999.90;;;999.90;;
1358;SDS011;673;48.098;14.422;2024-03-23T04:39:36;1999.90;;;999.90;;
1358;SDS011;673;48.098;14.422;2024-03-23T04:42:05;1999.90;;;999.90;;
1358;SDS011;673;48.098;14.422;2024-03-23T04:44:32;1999.90;;;999.90;;
1358;SDS011;673;48.098;14.422;2024-03-23T04:46:59;1999.90;;;999.90;;
1358;SDS011;673;48.098;14.422;2024-03-23T04:49:26;1999.90;;;999.90;;
1358;SDS011;673;48.098;14.422;2024-03-23T04:51:54;1999.90;;;999.90;;
1358;SDS011;673;48.098;14.422;2024-03-23T04:54:20;1999.90;;;999.90;;
1358;SDS011;673;48.098;14.422;2024-03-23T04:56:47;1999.90;;;999.90;;
1358;SDS011;673;48.098;14.422;2024-03-23T04:59:16;1999.90;;;999.90;;
1358;SDS011;673;48.098;14.422;2024-03-23T05:01:42;1999.90;;;999.90;;
1358;SDS011;673;48.098;14.422;2024-03-23T05:04:09;1999.90;;;999.90;;
1358;SDS011;673;48.098;14.422;2024-03-23T05:06:35;1999.90;;;999.90;;
1358;SDS011;673;48.098;14.422;2024-03-23T05:09:02;1999.90;;;999.90;;
1358;SDS011;673;48.098;14.422;2024-03-23T05:11:31;1999.90;;;999.90;;
1358;SDS011;673;48.098;14.422;2024-03-23T05:13:58;1999.90;;;999.90;;
1358;SDS011;673;48.098;14.422;2024-03-23T05:16:26;1999.90;;;999.90;;
1358;SDS011;673;48.098;14.422;2024-03-23T05:18:53;1999.90;;;999.90;;
1358;SDS011;673;48.098;14.422;2024-03-23T05:21:19;1999.90;;;999.90;;
1358;SDS011;673;48.098;14.422;2024-03-23T05:23:46;1999.90;;;999.90;;
1358;SDS011;673;48.098;14.422;2024-03-23T05:26:12;1999.90;;;999.90;;
1358;SDS011;673;48.098;14.422;2024-03-23T05:28:39;1999.90;;;999.90;;
1358;SDS011;673;48.098;14.422;2024-03-23T05:31:05;1999.90;;;999.90;;
1358;SDS011;673;48.098;14.422;2024-03-23T05:33:35;1999.90;;;999.90;;
1358;SDS011;673;48.098;14.422;2024-03-23T05:36:03;1999.90;;;999.90;;
1358;SDS011;673;48.098;14.422;2024-03-23T05:38:33;1999.90;;;999.90;;
1358;SDS011;673;48.098;14.422;2024-03-23T05:41:00;1999.90;;;999.90;;
1358;SDS011;673;48.098;14.422;2024-03-23T05:43:27;1999.90;;;999.90;;
1358;SDS011;673;48.098;14.422;2024-03-23T05:45:54;1999.90;;;999.90;;
1358;SDS011;673;48.098;14.422;2024-03-23T05:48:21;1999.90;;;999.90;;
1358;SDS011;673;48.098;14.422;2024-03-23T05:50:49;1999.90;;;999.90;;
1358;SDS011;673;48.098;14.422;2024-03-23T05:53:16;1999.90;;;999.90;;
1358;SDS011;673;48.098;14.422;2024-03-23T05:55:42;1999.90;;;999.90;;
1358;SDS011;673;48.098;14.422;2024-03-23T05:58:09;1999.90;;;999.90;;
1358;SDS011;673;48.098;14.422;2024-03-23T06:00:35;1999.90;;;999.90;;
1358;SDS011;673;48.098;14.422;2024-03-23T06:03:02;1999.90;;;999.90;;
1358;SDS011;673;48.098;14.422;2024-03-23T06:05:29;1999.90;;;999.90;;
1358;SDS011;673;48.098;14.422;2024-03-23T06:07:57;1999.90;;;999.90;;
1358;SDS011;673;48.098;14.422;2024-03-23T06:10:25;1999.90;;;999.90;;
1358;SDS011;673;48.098;14.422;2024-03-23T06:12:52;1999.90;;;999.90;;
1358;SDS011;673;48.098;14.422;2024-03-23T06:15:18;1999.90;;;999.90;;
1358;SDS011;673;48.098;14.422;2024-03-23T06:17:45;1999.90;;;999.90;;
1358;SDS011;673;48.098;14.422;2024-03-23T06:20:11;1999.90;;;999.90;;
1358;SDS011;673;48.098;14.422;2024-03-23T06:22:39;1999.90;;;999.90;;
1358;SDS011;673;48.098;14.422;2024-03-23T06:25:06;1999.90;;;999.90;;
1358;SDS011;673;48.098;14.422;2024-03-23T06:27:34;1999.90;;;999.90;;
1358;SDS011;673;48.098;14.422;2024-03-23T06:30:00;1999.90;;;999.90;;
1358;SDS011;673;48.098;14.422;2024-03-23T06:32:27;1999.90;;;999.90;;
1358;SDS011;673;48.098;14.422;2024-03-23T06:34:54;1999.90;;;999.90;;
1358;SDS011;673;48.098;14.422;2024-03-23T06:37:21;1999.90;;;999.90;;
1358;SDS011;673;48.098;14.422;2024-03-23T06:39:47;1999.90;;;999.90;;
1358;SDS011;673;48.098;14.422;2024-03-23T06:42:15;1999.90;;;999.90;;
1358;SDS011;673;48.098;14.422;2024-03-23T06:44:41;1999.90;;;999.90;;
1358;SDS011;673;48.098;14.422;2024-03-23T06:47:09;1999.90;;;999.90;;
1358;SDS011;673;48.098;14.422;2024-03-23T06:49:35;1999.90;;;999.90;;
1358;SDS011;673;48.098;14.422;2024-03-23T06:52:02;1999.90;;;999.90;;
1358;SDS011;673;48.098;14.422;2024-03-23T06:54:28;1999.90;;;999.90;;
1358;SDS011;673;48.098;14.422;2024-03-23T06:56:55;1999.90;;;999.90;;
1358;SDS011;673;48.098;14.422;2024-03-23T06:59:23;1999.90;;;999.90;;
1358;SDS011;673;48.098;14.422;2024-03-23T07:01:50;1999.90;;;999.90;;
1358;SDS011;673;48.098;14.422;2024-03-23T07:04:16;1999.90;;;999.90;;
1358;SDS011;673;48.098;14.422;2024-03-23T07:06:43;1999.90;;;999.90;;
1358;SDS011;673;48.098;14.422;2024-03-23T07:09:10;1999.90;;;999.90;;
1358;SDS011;673;48.098;14.422;2024-03-23T07:11:37;1999.90;;;999.90;;
1358;SDS011;673;48.098;14.422;2024-03-23T07:14:03;1999.90;;;999.90;;
1358;SDS011;673;48.098;14.422;2024-03-23T07:16:32;1999.90;;;999.90;;
1358;SDS011;673;48.098;14.422;2024-03-23T07:18:58;1999.90;;;999.90;;
1358;SDS011;673;48.098;14.422;2024-03-23T07:21:24;1999.90;;;999.90;;
1358;SDS011;673;48.098;14.422;2024-03-23T07:23:50;1999.90;;;999.90;;
1358;SDS011;673;48.098;14.422;2024-03-23T07:26:17;1999.90;;;999.90;;
1358;SDS011;673;48.098;14.422;2024-03-23T07:28:44;1999.90;;;999.90;;
1358;SDS011;673;48.098;14.422;2024-03-23T07:31:11;1999.90;;;999.90;;
1358;SDS011;673;48.098;14.422;2024-03-23T07:33:42;1999.90;;;999.90;;
1358;SDS011;673;48.098;14.422;2024-03-23T07:36:12;1999.90;;;999.90;;
1358;SDS011;673;48.098;14.422;2024-03-23T07:38:40;1999.90;;;999.90;;
1358;SDS011;673;48.098;14.422;2024-03-23T07:41:07;1999.90;;;999.90;;
1358;SDS011;673;48.098;14.422;2024-03-23T07:43:34;1999.90;;;999.90;;
1358;SDS011;673;48.098;14.422;2024-03-23T07:46:01;1999.90;;;999.90;;
1358;SDS011;673;48.098;14.422;2024-03-23T07:48:29;1999.90;;;999.90;;
1358;SDS011;673;48.098;14.422;2024-03-23T07:51:01;1999.90;;;999.90;;
1358;SDS011;673;48.098;14.422;2024-03-23T07:53:28;1999.90;;;999.90;;
1358;SDS011;673;48.098;14.422;2024-03-23T07:55:55;1999.90;;;999.90;;
1358;SDS011;673;48.098;14.422;2024-03-23T07:58:22;1999.90;;;999.90;;
1358;SDS011;673;48.098;14.422;2024-03-23T08:00:49;1999.90;;;999.90;;
1358;SDS011;673;48.098;14.422;2024-03-23T08:03:15;1999.90;;;999.90;;
1358;SDS011;673;48.098;14.422;2024-03-23T08:05:42;1999.90;;;999.90;;
1358;SDS011;673;48.098;14.422;2024-03-23T08:08:09;1999.90;;;999.90;;
1358;SDS011;673;48.098;14.422;2024-03-23T08:10:37;1999.90;;;999.90;;
1358;SDS011;673;48.098;14.422;2024-03-23T08:13:03;1999.90;;;999.90;;
1358;SDS011;673;48.098;14.422;2024-03-23T08:15:31;1999.90;;;999.90;;
1358;SDS011;673;48.098;14.422;2024-03-23T08:17:58;1999.90;;;999.90;;
1358;SDS011;673;48.098;14.422;2024-03-23T08:20:25;1999.90;;;999.90;;
1358;SDS011;673;48.098;14.422;2024-03-23T08:22:52;1999.90;;;999.90;;
1358;SDS011;673;48.098;14.422;2024-03-23T08:25:20;1999.90;;;999.90;;
1358;SDS011;673;48.098;14.422;2024-03-23T08:27:46;1999.90;;;999.90;;
1358;SDS011;673;48.098;14.422;2024-03-23T08:30:13;1999.90;;;999.90;;
1358;SDS011;673;48.098;14.422;2024-03-23T08:32:39;1999.90;;;999.90;;
1358;SDS011;673;48.098;14.422;2024-03-23T08:35:07;1999.90;;;999.90;;
1358;SDS011;673;48.098;14.422;2024-03-23T08:37:33;1999.90;;;999.90;;
1358;SDS011;673;48.098;14.422;2024-03-23T08:40:00;1999.90;;;999.90;;
1358;SDS011;673;48.098;14.422;2024-03-23T08:42:28;1999.90;;;999.90;;
1358;SDS011;673;48.098;14.422;2024-03-23T08:44:56;1999.90;;;999.90;;
1358;SDS011;673;48.098;14.422;2024-03-23T08:47:21;1999.90;;;999.90;;
1358;SDS011;673;48.098;14.422;2024-03-23T08:49:48;1999.90;;;999.90;;
1358;SDS011;673;48.098;14.422;2024-03-23T08:52:14;1999.90;;;999.90;;
1358;SDS011;673;48.098;14.422;2024-03-23T08:54:41;1999.90;;;999.90;;
1358;SDS011;673;48.098;14.422;2024-03-23T08:57:08;1999.90;;;999.90;;
1358;SDS011;673;48.098;14.422;2024-03-23T08:59:37;1999.90;;;999.90;;
1358;SDS011;673;48.098;14.422;2024-03-23T09:02:03;1999.90;;;999.90;;
1358;SDS011;673;48.098;14.422;2024-03-23T09:04:30;1999.90;;;999.90;;
1358;SDS011;673;48.098;14.422;2024-03-23T09:06:56;1999.90;;;999.90;;
1358;SDS011;673;48.098;14.422;2024-03-23T09:09:24;1999.90;;;999.90;;
1358;SDS011;673;48.098;14.422;2024-03-23T09:11:50;1999.90;;;999.90;;
1358;SDS011;673;48.098;14.422;2024-03-23T09:14:17;226.57;;;211.70;;
1358;SDS011;673;48.098;14.422;2024-03-23T09:16:44;1999.90;;;999.90;;
1358;SDS011;673;48.098;14.422;2024-03-23T09:19:11;248.37;;;232.70;;
1358;SDS011;673;48.098;14.422;2024-03-23T09:21:37;289.27;;;272.13;;
1358;SDS011;673;48.098;14.422;2024-03-23T09:24:04;268.13;;;252.53;;
1358;SDS011;673;48.098;14.422;2024-03-23T09:26:31;281.83;;;264.87;;
1358;SDS011;673;48.098;14.422;2024-03-23T09:28:58;318.23;;;301.27;;
1358;SDS011;673;48.098;14.422;2024-03-23T09:31:24;279.20;;;262.70;;
1358;SDS011;673;48.098;14.422;2024-03-23T09:33:52;332.60;;;313.70;;
1358;SDS011;673;48.098;14.422;2024-03-23T09:36:19;182.27;;;168.17;;
1358;SDS011;673;48.098;14.422;2024-03-23T09:38:46;264.43;;;247.40;;
1358;SDS011;673;48.098;14.422;2024-03-23T09:41:12;322.30;;;304.83;;
1358;SDS011;673;48.098;14.422;2024-03-23T09:43:40;303.67;;;286.83;;
1358;SDS011;673;48.098;14.422;2024-03-23T09:46:06;359.67;;;340.87;;
1358;SDS011;673;48.098;14.422;2024-03-23T09:48:34;260.17;;;244.70;;
1358;SDS011;673;48.098;14.422;2024-03-23T09:51:02;201.60;;;187.20;;
1358;SDS011;673;48.098;14.422;2024-03-23T09:53:29;220.50;;;206.00;;
1358;SDS011;673;48.098;14.422;2024-03-23T09:55:57;144.87;;;132.27;;
1358;SDS011;673;48.098;14.422;2024-03-23T09:58:24;308.07;;;291.20;;
1358;SDS011;673;48.098;14.422;2024-03-23T10:00:51;335.13;;;315.50;;
1358;SDS011;673;48.098;14.422;2024-03-23T10:03:17;182.90;;;169.33;;
1358;SDS011;673;48.098;14.422;2024-03-23T10:05:44;159.97;;;147.00;;
1358;SDS011;673;48.098;14.422;2024-03-23T10:08:18;156.70;;;143.40;;
1358;SDS011;673;48.098;14.422;2024-03-23T10:10:45;166.30;;;151.97;;
1358;SDS011;673;48.098;14.422;2024-03-23T10:13:14;187.43;;;173.43;;
1358;SDS011;673;48.098;14.422;2024-03-23T10:15:56;336.47;;;317.50;;
1358;SDS011;673;48.098;14.422;2024-03-23T10:18:23;158.10;;;144.97;;
1358;SDS011;673;48.098;14.422;2024-03-23T10:21:06;156.07;;;141.47;;
1358;SDS011;673;48.098;14.422;2024-03-23T10:23:35;161.00;;;147.80;;
1358;SDS011;673;48.098;14.422;2024-03-23T10:26:12;299.77;;;282.63;;
1358;SDS011;673;48.098;14.422;2024-03-23T10:28:50;183.73;;;169.20;;
1358;SDS011;673;48.098;14.422;2024-03-23T10:31:17;197.03;;;180.30;;
1358;SDS011;673;48.098;14.422;2024-03-23T10:33:44;1405.57;;;733.53;;
1358;SDS011;673;48.098;14.422;2024-03-23T10:36:11;195.60;;;181.10;;
1358;SDS011;673;48.098;14.422;2024-03-23T10:38:40;230.77;;;215.60;;
1358;SDS011;673;48.098;14.422;2024-03-23T10:41:07;1999.90;;;999.90;;
1358;SDS011;673;48.098;14.422;2024-03-23T10:43:35;1999.90;;;999.90;;
1358;SDS011;673;48.098;14.422;2024-03-23T10:46:02;1999.90;;;999.90;;
1358;SDS011;673;48.098;14.422;2024-03-23T10:48:29;1999.90;;;999.90;;
1358;SDS011;673;48.098;14.422;2024-03-23T10:50:55;1999.90;;;999.90;;
1358;SDS011;673;48.098;14.422;2024-03-23T10:53:24;1999.90;;;999.90;;
1358;SDS011;673;48.098;14.422;2024-03-23T10:55:52;1999.90;;;999.90;;
1358;SDS011;673;48.098;14.422;2024-03-23T10:58:21;1999.90;;;999.90;;
1358;SDS011;673;48.098;14.422;2024-03-23T11:00:51;1999.90;;;999.90;;
1358;SDS011;673;48.098;14.422;2024-03-23T11:03:29;1999.90;;;999.90;;
1358;SDS011;673;48.098;14.422;2024-03-23T11:06:00;1999.90;;;999.90;;
1358;SDS011;673;48.098;14.422;2024-03-23T11:08:31;1999.90;;;999.90;;
1358;SDS011;673;48.098;14.422;2024-03-23T11:11:21;1999.90;;;999.90;;
1358;SDS011;673;48.098;14.422;2024-03-23T11:13:49;1999.90;;;999.90;;
1358;SDS011;673;48.098;14.422;2024-03-23T11:16:16;1999.90;;;999.90;;
1358;SDS011;673;48.098;14.422;2024-03-23T11:18:47;1999.90;;;999.90;;
1358;SDS011;673;48.098;14.422;2024-03-23T11:21:51;1999.90;;;999.90;;
1358;SDS011;673;48.098;14.422;2024-03-23T11:24:19;1999.90;;;999.90;;
1358;SDS011;673;48.098;14.422;2024-03-23T11:26:48;1999.90;;;999.90;;
1358;SDS011;673;48.098;14.422;2024-03-23T11:29:15;1999.90;;;999.90;;
1358;SDS011;673;48.098;14.422;2024-03-23T11:31:46;1999.90;;;999.90;;
1358;SDS011;673;48.098;14.422;2024-03-23T11:34:13;1999.90;;;999.90;;
1358;SDS011;673;48.098;14.422;2024-03-23T11:36:40;1999.90;;;999.90;;
1358;SDS011;673;48.098;14.422;2024-03-23T11:39:14;1999.90;;;999.90;;
1358;SDS011;673;48.098;14.422;2024-03-23T11:41:49;1999.90;;;999.90;;
1358;SDS011;673;48.098;14.422;2024-03-23T11:44:17;1999.90;;;999.90;;
1358;SDS011;673;48.098;14.422;2024-03-23T11:46:43;1999.90;;;999.90;;
1358;SDS011;673;48.098;14.422;2024-03-23T11:49:21;1999.90;;;999.90;;
1358;SDS011;673;48.098;14.422;2024-03-23T11:51:48;1999.90;;;999.90;;
1358;SDS011;673;48.098;14.422;2024-03-23T11:54:15;1999.90;;;999.90;;
1358;SDS011;673;48.098;14.422;2024-03-23T11:56:54;1999.90;;;999.90;;
1358;SDS011;673;48.098;14.422;2024-03-23T11:59:32;1999.90;;;999.90;;
1358;SDS011;673;48.098;14.422;2024-03-23T12:01:59;1999.90;;;999.90;;
1358;SDS011;673;48.098;14.422;2024-03-23T12:04:26;1999.90;;;999.90;;
1358;SDS011;673;48.098;14.422;2024-03-23T12:09:38;1999.90;;;999.90;;
1358;SDS011;673;48.098;14.422;2024-03-23T12:12:10;1999.90;;;999.90;;
1358;SDS011;673;48.098;14.422;2024-03-23T12:14:40;1999.90;;;999.90;;
1358;SDS011;673;48.098;14.422;2024-03-23T12:17:07;1999.90;;;999.90;;
1358;SDS011;673;48.098;14.422;2024-03-23T12:19:38;1999.90;;;999.90;;
1358;SDS011;673;48.098;14.422;2024-03-23T12:22:04;1999.90;;;999.90;;
1358;SDS011;673;48.098;14.422;2024-03-23T12:24:32;1999.90;;;999.90;;
1358;SDS011;673;48.098;14.422;2024-03-23T12:26:59;1999.90;;;999.90;;
1358;SDS011;673;48.098;14.422;2024-03-23T12:29:29;1999.90;;;999.90;;
1358;SDS011;673;48.098;14.422;2024-03-23T12:31:56;1999.90;;;999.90;;
1358;SDS011;673;48.098;14.422;2024-03-23T12:34:25;1999.90;;;999.90;;
1358;SDS011;673;48.098;14.422;2024-03-23T12:36:51;1999.90;;;999.90;;
1358;SDS011;673;48.098;14.422;2024-03-23T12:39:18;1999.90;;;999.90;;
1358;SDS011;673;48.098;14.422;2024-03-23T12:41:45;1999.90;;;999.90;;
1358;SDS011;673;48.098;14.422;2024-03-23T12:44:12;1999.90;;;999.90;;
1358;SDS011;673;48.098;14.422;2024-03-23T12:46:41;1999.90;;;999.90;;
1358;SDS011;673;48.098;14.422;2024-03-23T12:49:08;1999.90;;;999.90;;
1358;SDS011;673;48.098;14.422;2024-03-23T12:51:34;1999.90;;;999.90;;
1358;SDS011;673;48.098;14.422;2024-03-23T12:54:02;1999.90;;;999.90;;
1358;SDS011;673;48.098;14.422;2024-03-23T12:56:28;1999.90;;;999.90;;
1358;SDS011;673;48.098;14.422;2024-03-23T12:58:55;1999.90;;;999.90;;
1358;SDS011;673;48.098;14.422;2024-03-23T13:01:22;1999.90;;;999.90;;
1358;SDS011;673;48.098;14.422;2024-03-23T13:03:50;1999.90;;;999.90;;
1358;SDS011;673;48.098;14.422;2024-03-23T13:06:17;1999.90;;;999.90;;
1358;SDS011;673;48.098;14.422;2024-03-23T13:08:44;1999.90;;;999.90;;
1358;SDS011;673;48.098;14.422;2024-03-23T13:11:10;1999.90;;;999.90;;
1358;SDS011;673;48.098;14.422;2024-03-23T13:13:38;1999.90;;;999.90;;
1358;SDS011;673;48.098;14.422;2024-03-23T13:16:04;1999.90;;;999.90;;
1358;SDS011;673;48.098;14.422;2024-03-23T13:18:32;1999.90;;;999.90;;
1358;SDS011;673;48.098;14.422;2024-03-23T13:20:59;1999.90;;;999.90;;
1358;SDS011;673;48.098;14.422;2024-03-23T13:23:27;1999.90;;;999.90;;
1358;SDS011;673;48.098;14.422;2024-03-23T13:25:53;1999.90;;;999.90;;
1358;SDS011;673;48.098;14.422;2024-03-23T13:28:22;1999.90;;;999.90;;
1358;SDS011;673;48.098;14.422;2024-03-23T13:30:49;1999.90;;;999.90;;
1358;SDS011;673;48.098;14.422;2024-03-23T13:33:16;1999.90;;;999.90;;
1358;SDS011;673;48.098;14.422;2024-03-23T13:35:48;1999.90;;;999.90;;
1358;SDS011;673;48.098;14.422;2024-03-23T13:38:16;1999.90;;;999.90;;
1358;SDS011;673;48.098;14.422;2024-03-23T13:40:52;1999.90;;;999.90;;
1358;SDS011;673;48.098;14.422;2024-03-23T13:43:19;1999.90;;;999.90;;
1358;SDS011;673;48.098;14.422;2024-03-23T13:45:47;1999.90;;;999.90;;
1358;SDS011;673;48.098;14.422;2024-03-23T13:48:13;1999.90;;;999.90;;
1358;SDS011;673;48.098;14.422;2024-03-23T13:50:40;1999.90;;;999.90;;
1358;SDS011;673;48.098;14.422;2024-03-23T13:53:06;1999.90;;;999.90;;
1358;SDS011;673;48.098;14.422;2024-03-23T13:55:35;1999.90;;;999.90;;
1358;SDS011;673;48.098;14.422;2024-03-23T13:58:01;1999.90;;;999.90;;
1358;SDS011;673;48.098;14.422;2024-03-23T14:00:29;1999.90;;;999.90;;
1358;SDS011;673;48.098;14.422;2024-03-23T14:02:56;1999.90;;;999.90;;
1358;SDS011;673;48.098;14.422;2024-03-23T14:05:23;1999.90;;;999.90;;
1358;SDS011;673;48.098;14.422;2024-03-23T14:07:50;1999.90;;;999.90;;
1358;SDS011;673;48.098;14.422;2024-03-23T14:10:17;1999.90;;;999.90;;
1358;SDS011;673;48.098;14.422;2024-03-23T14:12:44;1999.90;;;999.90;;
1358;SDS011;673;48.098;14.422;2024-03-23T14:15:12;1999.90;;;999.90;;
1358;SDS011;673;48.098;14.422;2024-03-23T14:17:38;1999.90;;;999.90;;
1358;SDS011;673;48.098;14.422;2024-03-23T14:20:05;1999.90;;;999.90;;
1358;SDS011;673;48.098;14.422;2024-03-23T14:22:34;1999.90;;;999.90;;
1358;SDS011;673;48.098;14.422;2024-03-23T14:25:01;1999.90;;;999.90;;
1358;SDS011;673;48.098;14.422;2024-03-23T14:27:27;1999.90;;;999.90;;
1358;SDS011;673;48.098;14.422;2024-03-23T14:29:55;1999.90;;;999.90;;
1358;SDS011;673;48.098;14.422;2024-03-23T14:32:21;1999.90;;;999.90;;
1358;SDS011;673;48.098;14.422;2024-03-23T14:34:48;1999.90;;;999.90;;
1358;SDS011;673;48.098;14.422;2024-03-23T14:37:14;1999.90;;;999.90;;
1358;SDS011;673;48.098;14.422;2024-03-23T14:39:41;1999.90;;;999.90;;
1358;SDS011;673;48.098;14.422;2024-03-23T14:42:09;1999.90;;;999.90;;
1358;SDS011;673;48.098;14.422;2024-03-23T14:44:36;1999.90;;;999.90;;
1358;SDS011;673;48.098;14.422;2024-03-23T14:47:03;1999.90;;;999.90;;
1358;SDS011;673;48.098;14.422;2024-03-23T14:49:30;1999.90;;;999.90;;
1358;SDS011;673;48.098;14.422;2024-03-23T14:51:56;1999.90;;;999.90;;
1358;SDS011;673;48.098;14.422;2024-03-23T14:54:23;1999.90;;;999.90;;
1358;SDS011;673;48.098;14.422;2024-03-23T14:56:49;1999.90;;;999.90;;
1358;SDS011;673;48.098;14.422;2024-03-23T14:59:16;1999.90;;;999.90;;
1358;SDS011;673;48.098;14.422;2024-03-23T15:01:42;1999.90;;;999.90;;
1358;SDS011;673;48.098;14.422;2024-03-23T15:04:10;1999.90;;;999.90;;
1358;SDS011;673;48.098;14.422;2024-03-23T15:06:36;1999.90;;;999.90;;
1358;SDS011;673;48.098;14.422;2024-03-23T15:09:03;1999.90;;;999.90;;
1358;SDS011;673;48.098;14.422;2024-03-23T15:11:32;1999.90;;;999.90;;